Time;durP1;ratioP1;P1;durP2;ratioP2;P2;SDS_P1;SDS_P2;PMS_P1;PMS_P2;Temp;Humidity;BMP_temperature;BMP_pressure;BME280_temperature;BME280_humidity;BME280_pressure;Samples;Min_cycle;Max_cycle;Signal;HPM_P1;HPM_P2
2022/09/15 00:00:48;;;;;;;;;;;19.90;99.90;;;;;;5010193;28;20863;-64
2022/09/15 00:03:16;;;;;;;;;;;19.80;99.90;;;;;;5000771;28;20277;-64
2022/09/15 00:05:44;;;;;;;;;;;19.80;99.90;;;;;;5003520;28;20765;-65
2022/09/15 00:08:12;;;;;;;;;;;19.90;99.90;;;;;;5009274;28;20758;-64
2022/09/15 00:10:46;;;;;;;;;;;20.00;99.90;;;;;;5001120;28;20652;-64
2022/09/15 00:13:14;;;;;;;;;;;20.00;99.90;;;;;;5002734;28;20821;-64
2022/09/15 00:15:43;;;;;;;;;;;20.10;99.90;;;;;;5002029;28;21053;-64
2022/09/15 00:18:11;;;;;;;;;;;20.00;99.90;;;;;;5002676;28;20605;-64
2022/09/15 00:20:40;;;;;;;;;;;20.00;99.90;;;;;;5002449;28;20927;-64
2022/09/15 00:23:08;;;;;;;;;;;20.00;99.90;;;;;;5003486;28;25074;-64
2022/09/15 00:25:40;;;;;;;;;;;20.10;99.90;;;;;;5002742;28;20718;-64
2022/09/15 00:28:08;;;;;;;;;;;20.10;99.90;;;;;;5001534;28;20201;-64
2022/09/15 00:30:39;;;;;;;;;;;20.10;99.90;;;;;;5004755;28;20130;-64
2022/09/15 00:33:08;;;;;;;;;;;19.90;99.90;;;;;;5009337;28;20225;-64
2022/09/15 00:35:37;;;;;;;;;;;19.80;99.90;;;;;;5006110;28;20144;-65
2022/09/15 00:38:05;;;;;;;;;;;19.80;99.90;;;;;;5009255;28;25110;-64
2022/09/15 00:40:32;;;;;;;;;;;19.70;99.90;;;;;;5010292;28;20121;-65
2022/09/15 00:43:00;;;;;;;;;;;19.80;99.90;;;;;;5004643;28;20889;-65
2022/09/15 00:45:28;;;;;;;;;;;20.10;99.90;;;;;;5002756;28;20258;-64
2022/09/15 00:47:56;;;;;;;;;;;20.10;99.90;;;;;;5002114;28;20724;-64
2022/09/15 00:50:25;;;;;;;;;;;20.10;99.90;;;;;;5002187;28;20277;-65
2022/09/15 00:52:54;;;;;;;;;;;20.10;99.90;;;;;;5006323;28;20096;-65
2022/09/15 00:55:23;;;;;;;;;;;20.00;99.90;;;;;;5002926;28;20222;-65
2022/09/15 00:57:53;;;;;;;;;;;20.10;99.90;;;;;;5001009;28;20210;-65
2022/09/15 01:00:22;;;;;;;;;;;20.00;99.90;;;;;;5000524;28;20383;-64
2022/09/15 01:02:50;;;;;;;;;;;20.00;99.90;;;;;;5001349;28;20121;-65
2022/09/15 01:05:19;;;;;;;;;;;20.00;99.90;;;;;;5003469;28;25074;-65
2022/09/15 01:07:51;;;;;;;;;;;20.00;99.90;;;;;;5000886;28;20102;-65
2022/09/15 01:10:21;;;;;;;;;;;20.10;99.90;;;;;;5000183;28;20968;-66
2022/09/15 01:12:49;;;;;;;;;;;20.00;99.90;;;;;;5000734;28;20440;-65
2022/09/15 01:15:17;;;;;;;;;;;19.90;99.90;;;;;;5009701;28;20201;-65
2022/09/15 01:17:51;;;;;;;;;;;19.90;99.90;;;;;;5009243;28;20139;-65
2022/09/15 01:20:27;;;;;;;;;;;20.00;99.90;;;;;;5007265;28;20565;-65
2022/09/15 01:23:02;;;;;;;;;;;20.10;99.90;;;;;;5004410;28;25086;-65
2022/09/15 01:25:40;;;;;;;;;;;20.00;99.90;;;;;;5002004;28;20694;-66
2022/09/15 01:28:29;;;;;;;;;;;19.90;99.90;;;;;;5002506;28;20268;-65
2022/09/15 01:31:01;;;;;;;;;;;20.00;99.90;;;;;;5002290;28;20264;-65
2022/09/15 01:33:34;;;;;;;;;;;19.90;99.90;;;;;;4999837;28;20335;-65
2022/09/15 01:36:04;;;;;;;;;;;20.00;99.90;;;;;;5003092;28;20579;-65
2022/09/15 01:38:38;;;;;;;;;;;20.00;99.90;;;;;;5002310;28;20136;-66
2022/09/15 01:41:08;;;;;;;;;;;19.90;99.90;;;;;;5009799;28;20716;-65
2022/09/15 01:43:39;;;;;;;;;;;19.80;99.90;;;;;;5008372;28;20666;-65
2022/09/15 01:46:09;;;;;;;;;;;19.80;99.90;;;;;;5008420;28;20775;-65
2022/09/15 01:48:37;;;;;;;;;;;19.80;99.90;;;;;;5008403;28;20518;-66
2022/09/15 01:51:06;;;;;;;;;;;19.80;99.90;;;;;;5002719;28;20307;-65
2022/09/15 01:53:34;;;;;;;;;;;19.80;99.90;;;;;;5001604;28;20675;-66
2022/09/15 01:56:03;;;;;;;;;;;19.80;99.90;;;;;;5001820;28;25073;-66
2022/09/15 01:58:31;;;;;;;;;;;19.80;99.90;;;;;;5000896;28;20091;-66
2022/09/15 02:01:01;;;;;;;;;;;19.80;99.90;;;;;;5001414;28;21311;-65
2022/09/15 02:03:33;;;;;;;;;;;19.90;99.90;;;;;;5001654;28;25092;-66
2022/09/15 02:06:03;;;;;;;;;;;20.00;99.90;;;;;;5000733;28;20073;-66
2022/09/15 02:08:34;;;;;;;;;;;19.80;99.90;;;;;;5001576;28;20769;-66
2022/09/15 02:11:07;;;;;;;;;;;19.80;99.90;;;;;;5001549;28;20314;-65
2022/09/15 02:13:39;;;;;;;;;;;19.80;99.90;;;;;;5005556;28;20404;-66
2022/09/15 02:16:12;;;;;;;;;;;19.60;99.90;;;;;;5005226;28;20689;-65
2022/09/15 02:18:44;;;;;;;;;;;19.50;99.90;;;;;;5004711;28;20579;-66
2022/09/15 02:21:13;;;;;;;;;;;19.60;99.90;;;;;;5004693;28;20703;-65
2022/09/15 02:23:43;;;;;;;;;;;19.70;99.90;;;;;;5004750;28;20159;-65
2022/09/15 02:26:15;;;;;;;;;;;19.70;99.90;;;;;;5004537;28;20483;-66
2022/09/15 02:28:44;;;;;;;;;;;19.60;99.90;;;;;;5004423;28;20206;-66
2022/09/15 02:31:14;;;;;;;;;;;19.40;99.90;;;;;;5050093;22;20385;-62
2022/09/15 02:33:46;;;;;;;;;;;19.20;99.90;;;;;;5027142;28;20362;-62
2022/09/15 02:36:18;;;;;;;;;;;19.10;99.90;;;;;;5027988;28;21098;-62
2022/09/15 02:38:48;;;;;;;;;;;19.30;99.90;;;;;;5027680;28;20617;-61
2022/09/15 02:41:16;;;;;;;;;;;19.50;99.90;;;;;;5026237;28;20712;-62
2022/09/15 02:43:44;;;;;;;;;;;19.50;99.90;;;;;;5025597;28;25064;-61
2022/09/15 02:46:12;;;;;;;;;;;19.60;99.90;;;;;;5024985;28;20429;-62
2022/09/15 02:48:40;;;;;;;;;;;19.50;99.90;;;;;;5026491;28;20671;-62
2022/09/15 02:51:09;;;;;;;;;;;19.60;99.90;;;;;;5025717;28;20238;-62
2022/09/15 02:53:37;;;;;;;;;;;19.70;99.90;;;;;;5025950;28;20307;-62
2022/09/15 02:56:05;;;;;;;;;;;19.60;99.90;;;;;;5025993;28;20828;-62
2022/09/15 02:58:33;;;;;;;;;;;19.60;99.90;;;;;;5025497;28;20142;-62
2022/09/15 03:01:01;;;;;;;;;;;19.60;99.90;;;;;;5024828;28;20259;-63
2022/09/15 03:03:29;;;;;;;;;;;19.50;99.90;;;;;;5024864;28;20469;-63
2022/09/15 03:06:15;;;;;;;;;;;19.40;99.90;;;;;;5025368;28;20235;-62
2022/09/15 03:08:47;;;;;;;;;;;19.20;99.90;;;;;;5024840;28;20487;-62
2022/09/15 03:11:15;;;;;;;;;;;19.30;99.90;;;;;;5023319;28;25075;-62
2022/09/15 03:13:43;;;;;;;;;;;19.30;99.90;;;;;;5025391;28;20485;-62
2022/09/15 03:16:12;;;;;;;;;;;19.40;99.90;;;;;;5024706;28;21153;-62
2022/09/15 03:18:40;;;;;;;;;;;19.30;99.90;;;;;;5025465;28;20231;-63
2022/09/15 03:21:09;;;;;;;;;;;19.30;99.90;;;;;;5024516;28;20659;-62
2022/09/15 03:23:36;;;;;;;;;;;19.20;99.90;;;;;;5023172;28;21309;-63
2022/09/15 03:26:06;;;;;;;;;;;19.30;99.90;;;;;;5025053;28;25079;-62
2022/09/15 03:28:34;;;;;;;;;;;19.10;99.90;;;;;;5024709;28;20329;-61
2022/09/15 03:31:02;;;;;;;;;;;18.90;99.90;;;;;;5024112;28;20379;-62
2022/09/15 03:33:30;;;;;;;;;;;18.70;99.90;;;;;;5024619;28;20238;-62
2022/09/15 03:35:57;;;;;;;;;;;18.40;99.90;;;;;;5024295;28;25081;-62
2022/09/15 03:38:25;;;;;;;;;;;18.50;99.90;;;;;;5025111;28;20098;-62
2022/09/15 03:40:57;;;;;;;;;;;18.30;99.90;;;;;;5024535;28;20224;-62
2022/09/15 03:43:27;;;;;;;;;;;18.50;99.90;;;;;;5024497;28;20602;-60
2022/09/15 03:45:54;;;;;;;;;;;18.50;99.90;;;;;;5024194;28;20586;-62
2022/09/15 03:48:22;;;;;;;;;;;18.50;99.90;;;;;;5025940;28;20184;-62
2022/09/15 03:50:50;;;;;;;;;;;18.40;99.90;;;;;;5024672;28;21768;-62
2022/09/15 03:53:19;;;;;;;;;;;18.50;99.90;;;;;;5024118;28;20318;-61
2022/09/15 03:55:47;;;;;;;;;;;18.30;99.90;;;;;;5028654;28;20923;-62
2022/09/15 03:58:15;;;;;;;;;;;18.00;99.90;;;;;;5030330;28;20823;-62
2022/09/15 04:00:44;;;;;;;;;;;17.90;99.90;;;;;;5024033;28;25063;-63
2022/09/15 04:03:13;;;;;;;;;;;18.00;99.90;;;;;;5024060;28;20167;-62
2022/09/15 04:05:40;;;;;;;;;;;18.40;99.90;;;;;;5024209;28;20380;-62
2022/09/15 04:08:11;;;;;;;;;;;18.50;99.90;;;;;;5028655;28;20115;-62
2022/09/15 04:10:39;;;;;;;;;;;18.70;99.90;;;;;;5024512;28;20460;-63
2022/09/15 04:13:07;;;;;;;;;;;18.80;99.90;;;;;;5024054;28;20259;-63
2022/09/15 04:15:34;;;;;;;;;;;18.60;99.90;;;;;;5024063;28;20702;-63
2022/09/15 04:18:04;;;;;;;;;;;18.30;99.90;;;;;;5013289;28;20290;-62
2022/09/15 04:20:32;;;;;;;;;;;18.10;99.90;;;;;;5013869;28;20819;-62
2022/09/15 04:23:00;;;;;;;;;;;17.90;99.90;;;;;;5013511;28;21209;-63
2022/09/15 04:25:28;;;;;;;;;;;17.60;99.90;;;;;;5014258;28;20473;-62
2022/09/15 04:27:56;;;;;;;;;;;17.70;99.90;;;;;;5014838;28;20514;-62
2022/09/15 04:30:23;;;;;;;;;;;17.80;99.90;;;;;;5012769;28;21203;-61
2022/09/15 04:32:52;;;;;;;;;;;17.60;99.90;;;;;;5013470;28;20760;-62
2022/09/15 04:35:21;;;;;;;;;;;17.20;99.90;;;;;;5012427;28;20365;-62
2022/09/15 04:37:50;;;;;;;;;;;17.40;99.90;;;;;;5014555;28;20216;-62
2022/09/15 04:40:18;;;;;;;;;;;17.40;99.90;;;;;;5011943;28;20536;-62
2022/09/15 04:42:46;;;;;;;;;;;17.20;99.90;;;;;;5014876;28;25070;-62
2022/09/15 04:45:14;;;;;;;;;;;17.20;99.90;;;;;;5015022;28;20227;-62
2022/09/15 04:47:42;;;;;;;;;;;17.10;99.90;;;;;;5015835;28;20357;-62
2022/09/15 04:50:10;;;;;;;;;;;17.10;99.90;;;;;;5014749;28;25070;-62
2022/09/15 04:52:39;;;;;;;;;;;17.10;99.90;;;;;;5016245;28;20221;-62
2022/09/15 04:55:06;;;;;;;;;;;16.80;99.90;;;;;;5015320;28;20297;-62
2022/09/15 04:57:34;;;;;;;;;;;16.70;99.90;;;;;;5017063;28;20254;-62
2022/09/15 05:00:04;;;;;;;;;;;16.60;99.90;;;;;;5014269;28;20778;-62
2022/09/15 05:02:32;;;;;;;;;;;16.40;99.90;;;;;;5015677;28;20224;-61
2022/09/15 05:05:01;;;;;;;;;;;16.30;99.90;;;;;;5010496;28;20453;-61
2022/09/15 05:07:28;;;;;;;;;;;16.30;99.90;;;;;;5013134;28;20466;-62
2022/09/15 05:09:57;;;;;;;;;;;16.20;99.90;;;;;;5015017;28;20897;-62
2022/09/15 05:12:25;;;;;;;;;;;16.50;99.90;;;;;;5014161;28;21083;-62
2022/09/15 05:14:53;;;;;;;;;;;16.50;99.90;;;;;;5011525;28;20112;-62
2022/09/15 05:17:20;;;;;;;;;;;16.30;99.90;;;;;;5011272;28;20420;-61
2022/09/15 05:19:53;;;;;;;;;;;16.60;99.90;;;;;;5011886;28;20695;-61
2022/09/15 05:22:20;;;;;;;;;;;16.60;99.90;;;;;;5011023;28;20694;-62
2022/09/15 05:24:48;;;;;;;;;;;16.50;99.90;;;;;;5013740;28;20489;-62
2022/09/15 05:27:17;;;;;;;;;;;16.50;99.90;;;;;;5011550;28;20416;-62
2022/09/15 05:29:45;;;;;;;;;;;16.40;99.90;;;;;;5012440;28;20342;-62
2022/09/15 05:32:13;;;;;;;;;;;16.30;99.90;;;;;;5011995;28;20458;-62
2022/09/15 05:34:40;;;;;;;;;;;16.30;99.90;;;;;;5014846;28;20718;-62
2022/09/15 05:37:09;;;;;;;;;;;16.70;99.90;;;;;;5014306;28;20352;-61
2022/09/15 05:39:38;;;;;;;;;;;17.10;99.90;;;;;;5013000;28;20419;-62
2022/09/15 05:42:06;;;;;;;;;;;17.50;99.90;;;;;;5014774;28;20687;-62
2022/09/15 05:44:35;;;;;;;;;;;17.40;99.90;;;;;;5013382;28;20197;-62
2022/09/15 05:47:02;;;;;;;;;;;17.50;99.90;;;;;;5016163;28;21098;-62
2022/09/15 05:49:31;;;;;;;;;;;17.60;99.90;;;;;;5016318;28;21013;-62
2022/09/15 05:51:59;;;;;;;;;;;18.00;99.90;;;;;;5013501;28;20223;-62
2022/09/15 05:54:27;;;;;;;;;;;18.20;99.90;;;;;;5015882;28;20707;-62
2022/09/15 05:56:54;;;;;;;;;;;18.30;99.90;;;;;;5015417;28;20588;-62
2022/09/15 05:59:22;;;;;;;;;;;18.50;99.90;;;;;;5017564;28;20676;-62
2022/09/15 06:01:51;;;;;;;;;;;18.50;99.90;;;;;;5016829;28;26134;-61
2022/09/15 06:04:19;;;;;;;;;;;18.50;99.90;;;;;;5016796;28;20496;-62
2022/09/15 06:06:47;;;;;;;;;;;18.40;99.90;;;;;;5019246;28;20553;-62
2022/09/15 06:09:14;;;;;;;;;;;18.60;99.90;;;;;;5016480;28;20055;-63
2022/09/15 06:11:42;;;;;;;;;;;18.60;99.90;;;;;;5014789;28;25063;-63
2022/09/15 06:14:12;;;;;;;;;;;18.60;99.90;;;;;;5016334;28;20146;-63
2022/09/15 06:16:39;;;;;;;;;;;18.60;99.90;;;;;;5017965;28;20434;-62
2022/09/15 06:19:09;;;;;;;;;;;18.70;99.90;;;;;;5017349;28;20413;-62
2022/09/15 06:21:36;;;;;;;;;;;18.70;99.90;;;;;;5014969;28;20250;-62
2022/09/15 06:24:05;;;;;;;;;;;18.60;99.90;;;;;;5017100;28;25066;-62
2022/09/15 06:26:34;;;;;;;;;;;18.40;99.90;;;;;;5017151;28;20695;-62
2022/09/15 06:29:03;;;;;;;;;;;18.40;99.90;;;;;;5018289;28;20872;-62
2022/09/15 06:31:32;;;;;;;;;;;18.30;99.90;;;;;;5015018;28;20089;-62
2022/09/15 06:34:01;;;;;;;;;;;18.10;99.90;;;;;;5015264;28;20692;-62
2022/09/15 06:36:30;;;;;;;;;;;18.20;99.90;;;;;;5013289;28;20520;-63
2022/09/15 06:38:58;;;;;;;;;;;18.10;99.90;;;;;;5015682;28;25074;-62
2022/09/15 06:41:28;;;;;;;;;;;18.10;99.90;;;;;;5014958;28;20117;-62
2022/09/15 06:44:15;;;;;;;;;;;18.10;99.90;;;;;;5015322;28;21343;-61
2022/09/15 06:46:44;;;;;;;;;;;18.10;99.90;;;;;;5015410;28;20709;-62
2022/09/15 06:49:11;;;;;;;;;;;18.20;99.90;;;;;;5015697;28;21167;-62
2022/09/15 06:51:40;;;;;;;;;;;18.40;99.90;;;;;;5014018;28;20107;-61
2022/09/15 06:54:08;;;;;;;;;;;18.60;99.90;;;;;;5015579;28;21472;-61
2022/09/15 06:56:36;;;;;;;;;;;18.60;99.90;;;;;;5014462;28;21276;-61
2022/09/15 06:59:05;;;;;;;;;;;18.60;99.90;;;;;;5016050;28;20465;-62
2022/09/15 07:01:33;;;;;;;;;;;18.60;99.90;;;;;;5017465;28;20722;-62
2022/09/15 07:04:01;;;;;;;;;;;18.50;99.90;;;;;;5013716;28;20715;-61
2022/09/15 07:06:30;;;;;;;;;;;18.30;99.90;;;;;;5016274;28;21349;-62
2022/09/15 07:09:00;;;;;;;;;;;18.30;99.90;;;;;;5014670;28;20422;-62
2022/09/15 07:11:28;;;;;;;;;;;18.60;99.90;;;;;;5010736;28;20080;-62
2022/09/15 07:13:56;;;;;;;;;;;18.60;99.90;;;;;;5017562;28;20236;-62
2022/09/15 07:16:25;;;;;;;;;;;18.70;99.90;;;;;;5018630;28;20283;-62
2022/09/15 07:18:54;;;;;;;;;;;18.70;99.90;;;;;;5013209;28;20688;-61
2022/09/15 07:21:22;;;;;;;;;;;18.50;99.90;;;;;;5012730;28;20369;-61
2022/09/15 07:23:50;;;;;;;;;;;18.30;99.90;;;;;;5015916;28;25065;-61
2022/09/15 07:26:20;;;;;;;;;;;18.20;99.90;;;;;;5016419;28;20675;-62
2022/09/15 07:28:49;;;;;;;;;;;18.20;99.90;;;;;;5017900;28;20077;-62
2022/09/15 07:31:18;;;;;;;;;;;18.20;99.90;;;;;;5012756;28;20319;-61
2022/09/15 07:33:46;;;;;;;;;;;18.00;99.90;;;;;;5016097;28;20875;-64
2022/09/15 07:36:15;;;;;;;;;;;17.90;99.90;;;;;;5014626;28;20605;-63
2022/09/15 07:38:43;;;;;;;;;;;17.70;99.90;;;;;;5014373;28;25087;-63
2022/09/15 07:41:12;;;;;;;;;;;17.30;99.90;;;;;;5013465;28;20358;-62
2022/09/15 07:43:44;;;;;;;;;;;17.10;99.90;;;;;;5014780;28;20095;-63
2022/09/15 07:46:12;;;;;;;;;;;17.00;99.90;;;;;;5018553;28;20441;-61
2022/09/15 07:48:40;;;;;;;;;;;16.80;99.90;;;;;;5014908;28;21480;-62
2022/09/15 07:51:08;;;;;;;;;;;16.70;99.90;;;;;;5011999;28;25097;-60
2022/09/15 07:53:35;;;;;;;;;;;16.80;99.90;;;;;;5013730;28;20081;-62
2022/09/15 07:56:03;;;;;;;;;;;16.70;99.90;;;;;;5015882;28;20266;-62
2022/09/15 07:58:32;;;;;;;;;;;16.60;99.90;;;;;;5018570;28;25096;-63
2022/09/15 08:01:05;;;;;;;;;;;16.80;99.90;;;;;;5018426;28;20339;-63
2022/09/15 08:03:33;;;;;;;;;;;16.60;99.90;;;;;;5020474;28;20345;-60
2022/09/15 08:06:01;;;;;;;;;;;16.50;99.90;;;;;;5019774;28;20228;-63
2022/09/15 08:08:29;;;;;;;;;;;16.40;99.90;;;;;;5019784;28;20752;-62
2022/09/15 08:10:57;;;;;;;;;;;16.30;99.90;;;;;;5016346;28;25063;-62
2022/09/15 08:13:25;;;;;;;;;;;16.20;99.90;;;;;;5019972;28;20199;-62
2022/09/15 08:15:52;;;;;;;;;;;16.10;99.90;;;;;;5020120;28;20124;-62
2022/09/15 08:18:21;;;;;;;;;;;16.10;99.90;;;;;;5018587;28;20566;-63
2022/09/15 08:20:49;;;;;;;;;;;16.20;99.90;;;;;;5018337;28;20271;-63
2022/09/15 08:23:17;;;;;;;;;;;16.20;99.90;;;;;;5019865;28;25113;-61
2022/09/15 08:25:45;;;;;;;;;;;16.10;99.90;;;;;;5021159;28;21015;-62
2022/09/15 08:28:13;;;;;;;;;;;16.10;99.90;;;;;;5020462;28;20175;-61
2022/09/15 08:30:40;;;;;;;;;;;16.10;99.90;;;;;;5017110;28;20808;-60
2022/09/15 08:33:08;;;;;;;;;;;16.00;99.90;;;;;;5020690;28;20848;-61
2022/09/15 08:35:37;;;;;;;;;;;16.00;99.90;;;;;;5018911;28;20277;-62
2022/09/15 08:38:05;;;;;;;;;;;16.00;99.90;;;;;;5018623;28;20326;-62
2022/09/15 08:40:37;;;;;;;;;;;16.00;99.90;;;;;;5019031;28;20988;-62
2022/09/15 08:43:08;;;;;;;;;;;16.10;99.90;;;;;;5019207;28;20345;-62
2022/09/15 08:45:41;;;;;;;;;;;16.20;99.90;;;;;;5019868;28;21510;-62
2022/09/15 08:48:14;;;;;;;;;;;16.30;99.90;;;;;;5019087;28;20426;-62
2022/09/15 08:50:44;;;;;;;;;;;16.50;99.90;;;;;;5014038;28;20296;-63
2022/09/15 08:53:14;;;;;;;;;;;16.60;99.90;;;;;;5013251;28;20668;-62
2022/09/15 08:55:45;;;;;;;;;;;16.70;99.90;;;;;;5013880;28;21844;-62
2022/09/15 08:58:14;;;;;;;;;;;16.80;99.90;;;;;;5012951;28;20170;-61
2022/09/15 09:00:45;;;;;;;;;;;16.90;99.90;;;;;;5015522;28;22423;-62
2022/09/15 09:03:28;;;;;;;;;;;17.00;99.90;;;;;;5017304;28;20258;-62
2022/09/15 09:05:59;;;;;;;;;;;17.10;99.90;;;;;;5017073;28;20313;-62
2022/09/15 09:08:50;;;;;;;;;;;17.30;99.90;;;;;;5016961;28;25139;-62
2022/09/15 09:11:22;;;;;;;;;;;17.60;99.90;;;;;;5015076;28;20182;-61
2022/09/15 09:13:55;;;;;;;;;;;17.60;99.90;;;;;;5011884;28;20455;-61
2022/09/15 09:16:31;;;;;;;;;;;17.70;99.90;;;;;;5011250;28;20657;-62
2022/09/15 09:19:03;;;;;;;;;;;17.70;99.90;;;;;;5013152;28;20722;-62
2022/09/15 09:21:34;;;;;;;;;;;17.90;99.90;;;;;;5009736;28;25071;-62
2022/09/15 09:24:04;;;;;;;;;;;18.20;99.90;;;;;;5013000;28;20362;-62
2022/09/15 09:26:34;;;;;;;;;;;18.30;99.90;;;;;;5015936;28;20077;-62
2022/09/15 09:29:05;;;;;;;;;;;18.40;99.90;;;;;;5014856;28;20123;-61
2022/09/15 09:31:34;;;;;;;;;;;18.50;99.90;;;;;;5009887;28;20168;-62
2022/09/15 09:34:10;;;;;;;;;;;18.50;99.90;;;;;;5014839;28;25078;-62
2022/09/15 09:36:39;;;;;;;;;;;18.30;99.90;;;;;;5015324;28;20136;-61
2022/09/15 09:39:11;;;;;;;;;;;18.10;99.90;;;;;;5012464;28;20341;-62
2022/09/15 09:41:40;;;;;;;;;;;18.20;99.90;;;;;;5011277;28;20261;-62
2022/09/15 09:44:10;;;;;;;;;;;18.30;99.90;;;;;;5016580;28;21434;-62
2022/09/15 09:46:38;;;;;;;;;;;18.60;99.90;;;;;;5016531;28;25081;-62
2022/09/15 09:49:12;;;;;;;;;;;18.70;99.90;;;;;;5019221;28;20936;-63
2022/09/15 09:51:50;;;;;;;;;;;19.00;99.90;;;;;;5018010;28;21112;-63
2022/09/15 09:54:19;;;;;;;;;;;19.30;99.90;;;;;;5019430;28;20225;-62
2022/09/15 09:56:48;;;;;;;;;;;19.80;99.90;;;;;;5016374;28;20206;-62
2022/09/15 09:59:31;;;;;;;;;;;19.90;99.90;;;;;;5015470;28;20851;-61
2022/09/15 10:02:06;;;;;;;;;;;20.20;99.90;;;;;;5012737;28;20244;-63
2022/09/15 10:04:33;;;;;;;;;;;20.40;99.90;;;;;;5017266;28;20109;-63
2022/09/15 10:07:03;;;;;;;;;;;20.60;99.90;;;;;;5014897;28;25061;-63
2022/09/15 10:09:31;;;;;;;;;;;21.00;99.90;;;;;;5015244;28;20692;-62
2022/09/15 10:12:02;;;;;;;;;;;21.00;99.90;;;;;;5015059;28;20244;-63
2022/09/15 10:14:31;;;;;;;;;;;20.90;99.90;;;;;;5016812;28;20247;-63
2022/09/15 10:17:00;;;;;;;;;;;21.00;99.90;;;;;;5013581;28;20230;-63
2022/09/15 10:19:28;;;;;;;;;;;21.10;99.90;;;;;;5015885;28;21128;-63
2022/09/15 10:21:56;;;;;;;;;;;21.10;99.90;;;;;;5014814;28;20099;-63
2022/09/15 10:24:30;;;;;;;;;;;21.10;99.90;;;;;;5016394;28;20410;-63
2022/09/15 10:27:05;;;;;;;;;;;21.00;99.90;;;;;;5015106;28;20225;-63
2022/09/15 10:29:37;;;;;;;;;;;20.70;99.90;;;;;;5014456;28;20143;-62
2022/09/15 10:32:15;;;;;;;;;;;21.00;99.90;;;;;;5014361;28;20247;-62
2022/09/15 10:34:47;;;;;;;;;;;21.00;99.90;;;;;;5022094;28;20608;-62
2022/09/15 10:37:20;;;;;;;;;;;21.00;99.90;;;;;;5022528;28;21310;-62
2022/09/15 10:39:51;;;;;;;;;;;20.90;99.90;;;;;;5020606;28;20584;-62
2022/09/15 10:42:25;;;;;;;;;;;20.80;99.90;;;;;;5019354;28;20101;-63
2022/09/15 10:45:00;;;;;;;;;;;20.50;99.90;;;;;;5019077;28;20327;-62
2022/09/15 10:47:30;;;;;;;;;;;20.40;99.90;;;;;;5019672;28;20125;-63
2022/09/15 10:50:04;;;;;;;;;;;20.60;99.90;;;;;;5019022;28;20226;-63
2022/09/15 10:52:41;;;;;;;;;;;20.90;99.90;;;;;;5021688;28;20235;-63
2022/09/15 10:55:24;;;;;;;;;;;21.50;99.90;;;;;;5019325;28;20246;-62
2022/09/15 10:58:18;;;;;;;;;;;21.90;99.90;;;;;;5015746;28;20118;-62
2022/09/15 11:00:49;;;;;;;;;;;22.00;99.90;;;;;;5016551;28;20232;-63
2022/09/15 11:03:30;;;;;;;;;;;21.90;99.90;;;;;;5019184;28;20710;-62
2022/09/15 11:06:03;;;;;;;;;;;21.80;99.90;;;;;;5016709;28;25103;-63
2022/09/15 11:08:41;;;;;;;;;;;21.50;99.90;;;;;;5016430;28;20160;-64
2022/09/15 11:11:14;;;;;;;;;;;21.20;99.90;;;;;;5034381;22;20742;-69
2022/09/15 11:13:47;;;;;;;;;;;21.00;99.90;;;;;;5015863;28;21442;-72
2022/09/15 11:16:20;;;;;;;;;;;20.70;99.90;;;;;;5020615;28;20211;-72
2022/09/15 11:18:53;;;;;;;;;;;20.50;99.90;;;;;;5022978;28;20265;-72
2022/09/15 11:21:25;;;;;;;;;;;20.20;99.90;;;;;;5020003;28;20695;-73
2022/09/15 11:23:56;;;;;;;;;;;19.90;99.90;;;;;;5026969;28;20255;-72
2022/09/15 11:26:28;;;;;;;;;;;19.90;99.90;;;;;;5024317;28;20094;-73
2022/09/15 11:28:58;;;;;;;;;;;19.80;99.90;;;;;;5025724;28;20223;-71
2022/09/15 11:31:27;;;;;;;;;;;19.80;99.90;;;;;;5023445;28;20218;-72
2022/09/15 11:33:57;;;;;;;;;;;19.80;99.90;;;;;;5025100;28;20255;-72
2022/09/15 11:36:29;;;;;;;;;;;19.80;99.90;;;;;;5024910;28;20794;-72
2022/09/15 11:38:59;;;;;;;;;;;19.80;99.90;;;;;;5025736;28;20274;-71
2022/09/15 11:41:34;;;;;;;;;;;19.90;99.90;;;;;;5022155;28;21060;-71
2022/09/15 11:44:05;;;;;;;;;;;20.00;99.90;;;;;;5024988;28;21012;-71
2022/09/15 11:46:41;;;;;;;;;;;20.20;99.90;;;;;;5024878;28;20617;-71
2022/09/15 11:49:13;;;;;;;;;;;20.70;99.90;;;;;;5024741;28;20248;-72
2022/09/15 11:51:44;;;;;;;;;;;21.10;99.90;;;;;;5023497;28;20212;-72
2022/09/15 11:54:13;;;;;;;;;;;21.30;99.90;;;;;;5024395;28;20213;-72
2022/09/15 11:56:44;;;;;;;;;;;21.30;99.90;;;;;;5025383;28;21402;-72
2022/09/15 11:59:17;;;;;;;;;;;21.50;99.90;;;;;;5024525;28;20106;-73
2022/09/15 12:01:48;;;;;;;;;;;21.50;99.90;;;;;;5023723;28;20721;-72
2022/09/15 12:04:19;;;;;;;;;;;21.70;99.90;;;;;;5024530;28;20201;-73
2022/09/15 12:06:50;;;;;;;;;;;21.70;99.90;;;;;;5025722;28;20587;-72
2022/09/15 12:09:19;;;;;;;;;;;21.70;99.90;;;;;;5025528;28;20068;-72
2022/09/15 12:11:49;;;;;;;;;;;22.10;99.90;;;;;;5021416;28;20214;-70
2022/09/15 12:14:21;;;;;;;;;;;22.40;99.90;;;;;;5026162;28;20290;-72
2022/09/15 12:16:49;;;;;;;;;;;22.50;99.90;;;;;;5027022;28;20236;-72
2022/09/15 12:19:21;;;;;;;;;;;22.90;99.90;;;;;;5027194;28;20203;-72
2022/09/15 12:21:52;;;;;;;;;;;23.50;99.90;;;;;;5023072;28;20565;-73
2022/09/15 12:24:27;;;;;;;;;;;23.90;99.90;;;;;;5024125;28;20206;-73
2022/09/15 12:26:58;;;;;;;;;;;23.50;99.90;;;;;;5024771;28;20245;-72
2022/09/15 12:29:30;;;;;;;;;;;23.10;99.90;;;;;;5023645;28;20588;-72
2022/09/15 12:32:19;;;;;;;;;;;22.60;99.90;;;;;;5020956;28;20211;-70
2022/09/15 12:34:57;;;;;;;;;;;21.90;99.90;;;;;;5018980;28;20216;-73
2022/09/15 12:37:25;;;;;;;;;;;21.30;99.90;;;;;;5022592;28;21137;-71
2022/09/15 12:39:53;;;;;;;;;;;20.80;99.90;;;;;;5023248;28;20203;-72
2022/09/15 12:42:23;;;;;;;;;;;20.40;99.90;;;;;;5020937;28;20778;-73
2022/09/15 12:44:53;;;;;;;;;;;20.10;99.90;;;;;;5022021;28;20212;-74
2022/09/15 12:47:24;;;;;;;;;;;19.70;99.90;;;;;;5023122;28;21272;-73
2022/09/15 12:49:53;;;;;;;;;;;19.60;99.90;;;;;;5019158;28;20197;-70
2022/09/15 12:52:22;;;;;;;;;;;19.40;99.90;;;;;;5018810;28;25089;-73
2022/09/15 12:54:52;;;;;;;;;;;19.40;99.90;;;;;;5020982;28;20132;-72
2022/09/15 12:57:22;;;;;;;;;;;19.40;99.90;;;;;;5018832;28;20112;-71
2022/09/15 13:00:11;;;;;;;;;;;19.50;99.90;;;;;;5022505;28;20323;-72
2022/09/15 13:02:43;;;;;;;;;;;19.60;99.90;;;;;;5017453;28;20402;-71
2022/09/15 13:05:11;;;;;;;;;;;19.70;99.90;;;;;;5022304;28;20214;-71
2022/09/15 13:07:53;;;;;;;;;;;19.80;99.90;;;;;;5022143;28;20202;-71
2022/09/15 13:10:35;;;;;;;;;;;20.10;99.90;;;;;;5020828;28;20227;-71
2022/09/15 13:13:11;;;;;;;;;;;20.20;99.90;;;;;;5017838;28;20197;-71
2022/09/15 13:15:43;;;;;;;;;;;20.30;99.90;;;;;;5021479;28;20262;-73
2022/09/15 13:18:12;;;;;;;;;;;20.30;99.90;;;;;;5019236;28;20226;-72
2022/09/15 13:20:43;;;;;;;;;;;20.20;99.90;;;;;;5021257;28;20310;-72
2022/09/15 13:23:13;;;;;;;;;;;20.20;99.90;;;;;;5020639;28;20285;-71
2022/09/15 13:25:43;;;;;;;;;;;20.20;99.90;;;;;;5019029;28;20200;-71
2022/09/15 13:28:12;;;;;;;;;;;20.30;99.90;;;;;;5019184;28;20319;-73
2022/09/15 13:30:45;;;;;;;;;;;20.40;99.90;;;;;;5018191;28;20396;-73
2022/09/15 13:33:22;;;;;;;;;;;20.50;99.90;;;;;;5019540;28;21310;-76
2022/09/15 13:36:00;;;;;;;;;;;20.50;99.90;;;;;;5019070;28;20479;-73
2022/09/15 13:38:35;;;;;;;;;;;20.40;99.90;;;;;;5021498;28;20085;-75
2022/09/15 13:41:24;;;;;;;;;;;20.50;99.90;;;;;;5017522;28;20939;-72
2022/09/15 13:44:11;;;;;;;;;;;21.20;99.90;;;;;;5016969;28;20665;-73
2022/09/15 13:46:46;;;;;;;;;;;22.20;99.90;;;;;;5019047;28;20236;-73
2022/09/15 13:49:40;;;;;;;;;;;23.00;99.90;;;;;;5010562;28;20207;-73
2022/09/15 13:52:19;;;;;;;;;;;23.20;99.90;;;;;;5009319;28;20213;-73
2022/09/15 13:55:06;;;;;;;;;;;22.80;99.90;;;;;;5021997;28;20222;-72
2022/09/15 13:57:34;;;;;;;;;;;22.50;99.90;;;;;;5017594;28;20838;-74
2022/09/15 14:00:23;;;;;;;;;;;21.80;99.90;;;;;;5018606;28;20195;-74
2022/09/15 14:02:54;;;;;;;;;;;21.60;99.90;;;;;;5016363;28;20184;-74
2022/09/15 14:05:24;;;;;;;;;;;21.40;99.90;;;;;;5019705;28;20642;-74
2022/09/15 14:07:55;;;;;;;;;;;21.30;99.90;;;;;;5017299;28;20579;-72
2022/09/15 14:10:30;;;;;;;;;;;21.00;99.90;;;;;;5024254;28;20268;-72
2022/09/15 14:12:59;;;;;;;;;;;20.80;99.90;;;;;;5021112;28;20249;-72
2022/09/15 14:15:28;;;;;;;;;;;20.70;99.90;;;;;;5021626;28;21049;-71
2022/09/15 14:17:57;;;;;;;;;;;21.10;99.90;;;;;;5021150;28;20210;-73
2022/09/15 14:20:26;;;;;;;;;;;21.70;99.90;;;;;;5021755;28;20292;-72
2022/09/15 14:22:55;;;;;;;;;;;22.50;99.90;;;;;;5021147;28;20349;-72
2022/09/15 14:25:23;;;;;;;;;;;23.20;99.90;;;;;;5020563;28;20643;-72
2022/09/15 14:27:51;;;;;;;;;;;23.50;99.90;;;;;;5022441;28;20251;-72
2022/09/15 14:30:21;;;;;;;;;;;23.70;99.90;;;;;;5022771;28;20753;-72
2022/09/15 14:32:51;;;;;;;;;;;23.10;99.90;;;;;;5026299;28;20890;-72
2022/09/15 14:35:21;;;;;;;;;;;22.60;99.90;;;;;;5024365;28;21497;-72